createdAt,value
2023-02-06T00:00:03.641Z, 40.40
2023-02-06T00:01:03.643Z, 40.39
2023-02-06T00:02:03.724Z, 40.37
2023-02-06T00:03:03.678Z, 40.31
2023-02-06T00:04:03.700Z, 40.31
2023-02-06T00:05:03.757Z, 40.30
2023-02-06T00:06:03.918Z, 40.25
2023-02-06T00:07:03.806Z, 40.24
2023-02-06T00:08:03.832Z, 40.23
2023-02-06T00:09:03.866Z, 40.19
2023-02-06T00:10:03.896Z, 40.19
2023-02-06T00:11:03.906Z, 40.12
2023-02-06T00:12:03.891Z, 40.12
2023-02-06T00:13:03.932Z, 40.14
2023-02-06T00:14:03.882Z, 40.06
2023-02-06T00:15:03.977Z, 40.04
2023-02-06T00:16:04.155Z, 39.98
2023-02-06T00:17:03.924Z, 40.00
2023-02-06T00:18:03.995Z, 39.99
2023-02-06T00:19:03.944Z, 39.97
2023-02-06T00:20:04.112Z, 39.99
2023-02-06T00:21:04.033Z, 39.95
2023-02-06T00:22:04.096Z, 39.93
2023-02-06T00:23:04.077Z, 39.90
2023-02-06T00:24:04.078Z, 39.84
2023-02-06T00:25:04.075Z, 39.84
2023-02-06T00:26:04.096Z, 39.82
2023-02-06T00:27:04.069Z, 39.82
2023-02-06T00:28:04.136Z, 39.73
2023-02-06T00:29:04.118Z, 39.75
2023-02-06T00:30:04.098Z, 39.71
2023-02-06T00:31:04.220Z, 39.66
2023-02-06T00:32:04.175Z, 39.67
2023-02-06T00:33:04.166Z, 39.68
2023-02-06T00:34:04.139Z, 39.59
2023-02-06T00:35:04.139Z, 39.60
2023-02-06T00:36:04.125Z, 39.60
2023-02-06T00:37:04.130Z, 39.56
2023-02-06T00:38:04.143Z, 39.52
2023-02-06T00:39:04.177Z, 39.47
2023-02-06T00:40:04.202Z, 39.51
2023-02-06T00:41:04.190Z, 39.48
2023-02-06T00:42:04.237Z, 39.46
2023-02-06T00:43:04.322Z, 39.38
2023-02-06T00:44:04.268Z, 39.40
2023-02-06T00:45:04.285Z, 39.39
2023-02-06T00:46:04.344Z, 39.39
2023-02-06T00:47:04.312Z, 39.37
2023-02-06T00:48:04.297Z, 39.34
2023-02-06T00:49:04.323Z, 39.30
2023-02-06T00:50:04.346Z, 39.30
2023-02-06T00:51:04.332Z, 39.27
2023-02-06T00:52:04.386Z, 39.21
2023-02-06T00:53:04.345Z, 39.24
2023-02-06T00:54:04.370Z, 39.22
2023-02-06T00:55:04.375Z, 39.24
2023-02-06T00:56:04.409Z, 39.22
2023-02-06T00:57:04.388Z, 39.20
2023-02-06T00:58:04.384Z, 39.13
2023-02-06T00:59:04.405Z, 39.18
2023-02-06T01:00:04.383Z, 39.12
2023-02-06T01:01:04.403Z, 39.11
2023-02-06T01:02:04.390Z, 39.03
2023-02-06T01:03:04.454Z, 39.03
2023-02-06T01:04:04.408Z, 39.07
2023-02-06T01:05:04.407Z, 39.03
2023-02-06T01:06:04.414Z, 38.93
2023-02-06T01:07:04.423Z, 38.98
2023-02-06T01:08:04.751Z, 38.96
2023-02-06T01:09:04.444Z, 38.97
2023-02-06T01:10:04.456Z, 38.99
2023-02-06T01:11:04.496Z, 38.97
2023-02-06T01:12:04.534Z, 38.95
2023-02-06T01:13:04.521Z, 38.95
2023-02-06T01:14:04.513Z, 38.92
2023-02-06T01:15:04.535Z, 38.86
2023-02-06T01:16:04.602Z, 38.83
2023-02-06T01:17:04.570Z, 38.79
2023-02-06T01:18:04.579Z, 38.77
2023-02-06T01:19:04.591Z, 38.78
2023-02-06T01:20:04.591Z, 38.75
2023-02-06T01:21:04.607Z, 38.74
2023-02-06T01:22:04.685Z, 38.79
2023-02-06T01:23:04.660Z, 38.72
2023-02-06T01:24:04.651Z, 38.71
2023-02-06T01:25:04.651Z, 38.69
2023-02-06T01:26:04.661Z, 38.66
2023-02-06T01:27:04.662Z, 38.60
2023-02-06T01:28:04.722Z, 38.59
2023-02-06T01:29:04.684Z, 38.63
2023-02-06T01:30:04.683Z, 38.59
2023-02-06T01:31:04.870Z, 38.57
2023-02-06T01:32:04.690Z, 38.49
2023-02-06T01:33:04.722Z, 38.52
2023-02-06T01:34:04.763Z, 38.48
2023-02-06T01:35:04.780Z, 38.43
2023-02-06T01:36:04.775Z, 38.51
2023-02-06T01:37:04.777Z, 38.52
2023-02-06T01:38:04.778Z, 38.48
2023-02-06T01:39:04.815Z, 38.52
2023-02-06T01:40:04.829Z, 38.47
2023-02-06T01:41:04.844Z, 38.44
2023-02-06T01:42:04.864Z, 38.36
2023-02-06T01:43:04.867Z, 38.30
2023-02-06T01:44:04.869Z, 38.24
2023-02-06T01:45:04.896Z, 38.21
2023-02-06T01:46:04.916Z, 38.23
2023-02-06T01:47:04.908Z, 38.25
2023-02-06T01:48:04.998Z, 38.23
2023-02-06T01:49:06.938Z, 38.26
2023-02-06T01:50:04.973Z, 38.25
2023-02-06T01:51:04.987Z, 38.23
2023-02-06T01:52:05.058Z, 38.24
2023-02-06T01:53:05.070Z, 38.24
2023-02-06T01:54:05.055Z, 38.19
2023-02-06T01:55:05.086Z, 38.11
2023-02-06T01:56:05.045Z, 38.12
2023-02-06T01:57:05.053Z, 38.09
2023-02-06T01:58:05.047Z, 38.10
2023-02-06T01:59:05.125Z, 38.06
2023-02-06T02:00:05.142Z, 38.07
2023-02-06T02:01:05.240Z, 38.02
2023-02-06T02:02:05.218Z, 38.04
2023-02-06T02:03:05.102Z, 38.01
2023-02-06T02:04:05.119Z, 38.01
2023-02-06T02:05:05.122Z, 37.97
2023-02-06T02:06:05.141Z, 37.91
2023-02-06T02:07:05.204Z, 37.93
2023-02-06T02:08:05.230Z, 37.89
2023-02-06T02:09:05.197Z, 37.86
2023-02-06T02:10:05.224Z, 37.85
2023-02-06T02:11:05.263Z, 37.80
2023-02-06T02:12:05.239Z, 37.80
2023-02-06T02:13:05.286Z, 37.76
2023-02-06T02:14:05.305Z, 37.73
2023-02-06T02:15:05.312Z, 37.68
2023-02-06T02:16:05.410Z, 37.68
2023-02-06T02:17:05.317Z, 37.68
2023-02-06T02:18:05.343Z, 37.65
2023-02-06T02:19:05.348Z, 37.69
2023-02-06T02:20:05.345Z, 37.66
2023-02-06T02:21:05.377Z, 37.64
2023-02-06T02:22:05.380Z, 37.66
2023-02-06T02:23:05.399Z, 37.60
2023-02-06T02:24:05.408Z, 37.58
2023-02-06T02:25:05.437Z, 37.57
2023-02-06T02:26:05.459Z, 37.58
2023-02-06T02:27:05.473Z, 37.62
2023-02-06T02:28:05.575Z, 37.65
2023-02-06T02:29:05.480Z, 37.60
2023-02-06T02:30:05.496Z, 37.56
2023-02-06T02:31:05.522Z, 37.57
2023-02-06T02:32:05.512Z, 37.60
2023-02-06T02:33:05.535Z, 37.55
2023-02-06T02:34:05.539Z, 37.48
2023-02-06T02:35:05.538Z, 37.41
2023-02-06T02:36:05.547Z, 37.44
2023-02-06T02:37:05.577Z, 37.42
2023-02-06T02:38:05.572Z, 37.41
2023-02-06T02:39:05.607Z, 37.40
2023-02-06T02:40:07.812Z, 37.41
2023-02-06T02:41:05.621Z, 37.41
2023-02-06T02:42:05.632Z, 37.37
2023-02-06T02:43:05.643Z, 37.36
2023-02-06T02:44:05.649Z, 37.31
2023-02-06T02:45:05.641Z, 37.37
2023-02-06T02:46:05.709Z, 37.31
2023-02-06T02:47:05.663Z, 37.33
2023-02-06T02:48:05.675Z, 37.35
2023-02-06T02:49:05.726Z, 37.31
2023-02-06T02:50:05.681Z, 37.28
2023-02-06T02:51:05.707Z, 37.31
2023-02-06T02:52:05.741Z, 37.26
2023-02-06T02:53:05.714Z, 37.24
2023-02-06T02:54:05.776Z, 37.20
2023-02-06T02:55:05.800Z, 37.14
2023-02-06T02:56:05.766Z, 37.14
2023-02-06T02:57:05.815Z, 37.18
2023-02-06T02:58:05.772Z, 37.11
2023-02-06T02:59:05.778Z, 37.12
2023-02-06T03:00:05.779Z, 37.08
2023-02-06T03:01:05.852Z, 37.06
2023-02-06T03:02:05.874Z, 37.11
2023-02-06T03:03:05.824Z, 37.12
2023-02-06T03:04:05.865Z, 37.07
2023-02-06T03:05:05.883Z, 37.02
2023-02-06T03:06:05.869Z, 37.04
2023-02-06T03:07:05.862Z, 36.99
2023-02-06T03:08:05.897Z, 36.97
2023-02-06T03:09:05.985Z, 36.93
2023-02-06T03:10:05.932Z, 36.92
2023-02-06T03:11:05.996Z, 36.94
2023-02-06T03:12:06.029Z, 36.95
2023-02-06T03:13:05.995Z, 36.88
2023-02-06T03:14:06.074Z, 36.84
2023-02-06T03:15:06.012Z, 36.81
2023-02-06T03:16:06.007Z, 36.82
2023-02-06T03:17:05.980Z, 36.83
2023-02-06T03:18:05.978Z, 36.79
2023-02-06T03:19:05.994Z, 36.73
2023-02-06T03:20:06.064Z, 36.74
2023-02-06T03:21:06.069Z, 36.81
2023-02-06T03:22:06.038Z, 36.72
2023-02-06T03:23:06.037Z, 36.74
2023-02-06T03:24:06.057Z, 36.74
2023-02-06T03:25:06.060Z, 36.70
2023-02-06T03:26:06.057Z, 36.68
2023-02-06T03:27:06.076Z, 36.69
2023-02-06T03:28:06.121Z, 36.67
2023-02-06T03:29:06.130Z, 36.64
2023-02-06T03:30:06.131Z, 36.60
2023-02-06T03:31:06.127Z, 36.52
2023-02-06T03:32:06.157Z, 36.55
2023-02-06T03:33:06.156Z, 36.51
2023-02-06T03:34:06.170Z, 36.50
2023-02-06T03:35:06.186Z, 36.46
2023-02-06T03:36:06.188Z, 36.42
2023-02-06T03:37:06.193Z, 36.35
2023-02-06T03:38:06.260Z, 36.35
2023-02-06T03:39:06.250Z, 36.37
2023-02-06T03:40:06.241Z, 36.42
2023-02-06T03:41:06.233Z, 36.41
2023-02-06T03:42:06.251Z, 36.40
2023-02-06T03:43:06.254Z, 36.39
2023-02-06T03:44:06.273Z, 36.35
2023-02-06T03:45:06.390Z, 36.33
2023-02-06T03:46:06.495Z, 36.34
2023-02-06T03:47:06.395Z, 36.26
2023-02-06T03:48:06.363Z, 36.28
2023-02-06T03:49:06.365Z, 36.25
2023-02-06T03:50:06.447Z, 36.27
2023-02-06T03:51:06.408Z, 36.23
2023-02-06T03:52:06.485Z, 36.26
2023-02-06T03:53:06.452Z, 36.26
2023-02-06T03:54:06.481Z, 36.21
2023-02-06T03:55:06.506Z, 36.15
2023-02-06T03:56:06.515Z, 36.19
2023-02-06T03:57:06.536Z, 36.18
2023-02-06T03:58:06.501Z, 36.18
2023-02-06T03:59:06.508Z, 36.16
2023-02-06T04:00:06.535Z, 36.10
2023-02-06T04:01:06.589Z, 36.07
2023-02-06T04:02:06.614Z, 36.01
2023-02-06T04:03:06.601Z, 36.03
2023-02-06T04:04:06.583Z, 36.07
2023-02-06T04:05:06.590Z, 36.09
2023-02-06T04:06:06.608Z, 36.06
2023-02-06T04:07:06.627Z, 36.01
2023-02-06T04:08:06.646Z, 35.94
2023-02-06T04:09:06.647Z, 35.94
2023-02-06T04:10:06.664Z, 35.97
2023-02-06T04:11:06.654Z, 35.94
2023-02-06T04:12:06.673Z, 35.89
2023-02-06T04:13:06.694Z, 35.90
2023-02-06T04:14:06.721Z, 35.87
2023-02-06T04:15:06.746Z, 35.86
2023-02-06T04:16:06.707Z, 35.86
2023-02-06T04:17:06.708Z, 35.85
2023-02-06T04:18:06.733Z, 35.87
2023-02-06T04:19:06.706Z, 35.84
2023-02-06T04:20:06.729Z, 35.78
2023-02-06T04:21:06.780Z, 35.78
2023-02-06T04:22:06.764Z, 35.77
2023-02-06T04:23:06.769Z, 35.77
2023-02-06T04:24:06.774Z, 35.76
2023-02-06T04:25:06.780Z, 35.77
2023-02-06T04:26:06.836Z, 35.78
2023-02-06T04:27:06.828Z, 35.71
2023-02-06T04:28:06.890Z, 35.71
2023-02-06T04:29:06.843Z, 35.74
2023-02-06T04:30:06.943Z, 35.68
2023-02-06T04:31:07.077Z, 35.77
2023-02-06T04:32:06.877Z, 37.34
2023-02-06T04:33:06.901Z, 37.86
2023-02-06T04:34:06.922Z, 37.88
2023-02-06T04:35:06.939Z, 37.82
2023-02-06T04:36:06.946Z, 37.66
2023-02-06T04:37:06.962Z, 37.27
2023-02-06T04:38:06.981Z, 36.76
2023-02-06T04:39:06.988Z, 35.94
2023-02-06T04:40:06.954Z, 34.14
2023-02-06T04:41:07.006Z, 30.94
2023-02-06T04:42:07.015Z, 28.67
2023-02-06T04:43:06.991Z, 31.48
2023-02-06T04:44:07.004Z, 34.79
2023-02-06T04:45:07.010Z, 37.08
2023-02-06T04:46:07.096Z, 38.61
2023-02-06T04:47:07.096Z, 39.70
2023-02-06T04:48:07.057Z, 40.55
2023-02-06T04:49:07.054Z, 41.17
2023-02-06T04:50:07.062Z, 41.73
2023-02-06T04:51:07.078Z, 42.34
2023-02-06T04:52:07.108Z, 42.93
2023-02-06T04:53:07.167Z, 43.49
2023-02-06T04:54:07.173Z, 44.12
2023-02-06T04:55:07.181Z, 44.79
2023-02-06T04:56:07.177Z, 45.47
2023-02-06T04:57:07.159Z, 46.12
2023-02-06T04:58:07.176Z, 47.17
2023-02-06T04:59:07.223Z, 48.69
2023-02-06T05:00:07.207Z, 50.74
2023-02-06T05:01:07.199Z, 52.91
2023-02-06T05:02:07.202Z, 54.76
2023-02-06T05:03:07.249Z, 53.79
2023-02-06T05:04:07.268Z, 51.61
2023-02-06T05:05:07.257Z, 49.71
2023-02-06T05:06:07.250Z, 47.96
2023-02-06T05:07:07.250Z, 46.50
2023-02-06T05:08:07.244Z, 45.23
2023-02-06T05:09:07.297Z, 44.09
2023-02-06T05:10:07.301Z, 42.85
2023-02-06T05:11:07.294Z, 41.40
2023-02-06T05:12:07.281Z, 39.47
2023-02-06T05:13:07.285Z, 40.78
2023-02-06T05:14:07.309Z, 46.12
2023-02-06T05:15:07.316Z, 49.90
2023-02-06T05:16:07.435Z, 52.81
2023-02-06T05:17:07.340Z, 55.31
2023-02-06T05:18:07.347Z, 55.72
2023-02-06T05:19:07.365Z, 54.69
2023-02-06T05:20:07.399Z, 53.54
2023-02-06T05:21:07.428Z, 52.29
2023-02-06T05:22:07.410Z, 51.02
2023-02-06T05:23:07.408Z, 49.70
2023-02-06T05:24:07.413Z, 48.56
2023-02-06T05:25:07.425Z, 47.52
2023-02-06T05:26:07.498Z, 46.60
2023-02-06T05:27:07.487Z, 45.92
2023-02-06T05:28:07.585Z, 45.03
2023-02-06T05:29:07.481Z, 44.05
2023-02-06T05:30:07.492Z, 48.44
2023-02-06T05:31:07.617Z, 53.29
2023-02-06T05:32:07.566Z, 55.11
2023-02-06T05:33:07.580Z, 54.91
2023-02-06T05:34:07.591Z, 53.67
2023-02-06T05:35:07.577Z, 52.38
2023-02-06T05:36:07.607Z, 51.28
2023-02-06T05:37:07.598Z, 49.98
2023-02-06T05:38:07.620Z, 48.92
2023-02-06T05:39:07.588Z, 48.32
2023-02-06T05:40:07.609Z, 47.62
2023-02-06T05:41:07.598Z, 46.77
2023-02-06T05:42:07.720Z, 45.92
2023-02-06T05:43:07.707Z, 45.03
2023-02-06T05:44:07.693Z, 44.17
2023-02-06T05:45:07.705Z, 43.25
2023-02-06T05:46:07.766Z, 46.95
2023-02-06T05:47:07.699Z, 52.42
2023-02-06T05:48:07.697Z, 54.80
2023-02-06T05:49:07.698Z, 55.12
2023-02-06T05:50:07.692Z, 54.62
2023-02-06T05:51:07.756Z, 53.96
2023-02-06T05:52:07.727Z, 53.34
2023-02-06T05:53:07.728Z, 52.81
2023-02-06T05:54:07.795Z, 52.26
2023-02-06T05:55:07.787Z, 51.69
2023-02-06T05:56:07.797Z, 51.14
2023-02-06T05:57:07.766Z, 50.59
2023-02-06T05:58:07.779Z, 50.09
2023-02-06T05:59:07.778Z, 49.56
2023-02-06T06:00:07.897Z, 48.97
2023-02-06T06:01:07.839Z, 48.44
2023-02-06T06:02:07.830Z, 47.86
2023-02-06T06:03:07.841Z, 47.35
2023-02-06T06:04:07.884Z, 47.26
2023-02-06T06:05:07.920Z, 50.28
2023-02-06T06:06:07.871Z, 53.45
2023-02-06T06:07:07.910Z, 55.95
2023-02-06T06:08:07.898Z, 59.08
2023-02-06T06:09:07.905Z, 67.47
2023-02-06T06:10:07.930Z, 57.90
2023-02-06T06:11:07.937Z, 53.02
2023-02-06T06:12:07.946Z, 54.02
2023-02-06T06:13:07.964Z, 55.12
2023-02-06T06:14:07.960Z, 57.56
2023-02-06T06:15:08.027Z, 61.10
2023-02-06T06:16:08.079Z, 65.91
2023-02-06T06:17:07.978Z, 53.93
2023-02-06T06:18:08.025Z, 53.94
2023-02-06T06:19:08.032Z, 55.03
2023-02-06T06:20:08.111Z, 56.94
2023-02-06T06:21:08.082Z, 58.53
2023-02-06T06:22:08.160Z, 59.52
2023-02-06T06:23:08.122Z, 60.26
2023-02-06T06:24:08.116Z, 60.84
2023-02-06T06:25:08.125Z, 61.13
2023-02-06T06:26:08.134Z, 61.22
2023-02-06T06:27:08.143Z, 61.34
2023-02-06T06:28:08.166Z, 61.38
2023-02-06T06:29:08.137Z, 61.27
2023-02-06T06:30:08.188Z, 61.17
2023-02-06T06:31:08.300Z, 61.08
2023-02-06T06:32:08.184Z, 61.01
2023-02-06T06:33:08.177Z, 60.88
2023-02-06T06:34:08.189Z, 60.80
2023-02-06T06:35:08.184Z, 60.72
2023-02-06T06:36:08.204Z, 60.54
2023-02-06T06:37:08.226Z, 60.31
2023-02-06T06:38:08.248Z, 60.27
2023-02-06T06:39:08.322Z, 60.03
2023-02-06T06:40:08.319Z, 59.86
2023-02-06T06:41:08.305Z, 59.70
2023-02-06T06:42:08.317Z, 59.51
2023-02-06T06:43:08.309Z, 59.35
2023-02-06T06:44:08.317Z, 59.27
2023-02-06T06:45:08.422Z, 59.14
2023-02-06T06:46:08.498Z, 58.93
2023-02-06T06:47:08.381Z, 58.80
2023-02-06T06:48:08.420Z, 58.58
2023-02-06T06:49:08.429Z, 58.45
2023-02-06T06:50:08.447Z, 58.35
2023-02-06T06:51:08.468Z, 58.14
2023-02-06T06:52:19.608Z, 57.91
2023-02-06T06:53:08.447Z, 57.82
2023-02-06T06:54:08.472Z, 57.69
2023-02-06T06:55:08.492Z, 57.57
2023-02-06T06:56:08.468Z, 57.33
2023-02-06T06:57:08.465Z, 57.30
2023-02-06T06:58:08.493Z, 57.17
2023-02-06T06:59:08.483Z, 56.98
2023-02-06T07:00:08.475Z, 56.85
2023-02-06T07:01:08.595Z, 56.75
2023-02-06T07:02:08.507Z, 56.59
2023-02-06T07:03:08.564Z, 56.52
2023-02-06T07:04:08.613Z, 56.46
2023-02-06T07:05:08.601Z, 56.31
2023-02-06T07:06:08.610Z, 56.12
2023-02-06T07:07:08.684Z, 55.98
2023-02-06T07:08:08.609Z, 55.86
2023-02-06T07:09:08.664Z, 55.74
2023-02-06T07:10:08.694Z, 55.68
2023-02-06T07:11:08.700Z, 55.53
2023-02-06T07:12:08.703Z, 55.45
2023-02-06T07:13:08.682Z, 55.29
2023-02-06T07:14:08.734Z, 55.24
2023-02-06T07:15:08.759Z, 55.08
2023-02-06T07:16:08.844Z, 55.03
2023-02-06T07:17:08.717Z, 54.85
2023-02-06T07:18:10.669Z, 54.78
2023-02-06T07:19:08.738Z, 54.70
2023-02-06T07:20:08.737Z, 54.64
2023-02-06T07:21:08.762Z, 54.52
2023-02-06T07:22:08.795Z, 54.46
2023-02-06T07:23:08.782Z, 54.30
2023-02-06T07:24:08.782Z, 54.26
2023-02-06T07:25:08.860Z, 54.08
2023-02-06T07:26:08.883Z, 54.05
2023-02-06T07:27:08.839Z, 53.88
2023-02-06T07:28:08.885Z, 53.82
2023-02-06T07:29:08.846Z, 53.68
2023-02-06T07:30:08.843Z, 53.61
2023-02-06T07:31:08.916Z, 53.53
2023-02-06T07:32:08.924Z, 53.47
2023-02-06T07:33:08.920Z, 53.46
2023-02-06T07:34:08.919Z, 53.33
2023-02-06T07:35:08.909Z, 53.23
2023-02-06T07:36:08.960Z, 53.20
2023-02-06T07:37:08.934Z, 53.13
2023-02-06T07:38:08.934Z, 53.03
2023-02-06T07:39:08.949Z, 52.97
2023-02-06T07:40:08.994Z, 52.87
2023-02-06T07:41:09.680Z, 52.70
2023-02-06T07:42:08.982Z, 52.73
2023-02-06T07:43:08.992Z, 52.58
2023-02-06T07:44:09.015Z, 52.54
2023-02-06T07:45:09.022Z, 52.37
2023-02-06T07:46:09.056Z, 52.39
2023-02-06T07:47:09.041Z, 52.30
2023-02-06T07:48:09.056Z, 52.22
2023-02-06T07:49:09.075Z, 52.07
2023-02-06T07:50:09.086Z, 52.00
2023-02-06T07:51:09.119Z, 51.96
2023-02-06T07:52:09.103Z, 51.90
2023-02-06T07:53:09.186Z, 51.81
2023-02-06T07:54:09.150Z, 51.73
2023-02-06T07:55:09.174Z, 51.66
2023-02-06T07:56:09.189Z, 51.60
2023-02-06T07:57:09.184Z, 51.57
2023-02-06T07:58:09.242Z, 51.53
2023-02-06T07:59:09.259Z, 51.47
2023-02-06T08:00:09.248Z, 51.41
2023-02-06T08:01:09.321Z, 51.35
2023-02-06T08:02:09.253Z, 51.21
2023-02-06T08:03:09.259Z, 51.14
2023-02-06T08:04:09.273Z, 51.15
2023-02-06T08:05:09.249Z, 50.98
2023-02-06T08:06:09.351Z, 51.00
2023-02-06T08:07:09.310Z, 50.92
2023-02-06T08:08:09.311Z, 50.84
2023-02-06T08:09:09.347Z, 50.76
2023-02-06T08:10:09.315Z, 50.70
2023-02-06T08:11:09.321Z, 50.66
2023-02-06T08:12:11.701Z, 50.59
2023-02-06T08:13:09.330Z, 50.47
2023-02-06T08:14:09.334Z, 50.45
2023-02-06T08:15:09.357Z, 50.40
2023-02-06T08:16:09.385Z, 50.34
2023-02-06T08:17:09.401Z, 50.32
2023-02-06T08:18:09.399Z, 50.20
2023-02-06T08:19:09.413Z, 50.14
2023-02-06T08:20:09.417Z, 50.05
2023-02-06T08:21:09.433Z, 50.05
2023-02-06T08:22:09.529Z, 50.02
2023-02-06T08:23:09.539Z, 49.98
2023-02-06T08:24:09.553Z, 49.99
2023-02-06T08:25:09.561Z, 49.90
2023-02-06T08:26:09.562Z, 49.85
2023-02-06T08:27:09.571Z, 49.68
2023-02-06T08:28:09.627Z, 49.72
2023-02-06T08:29:09.559Z, 49.71
2023-02-06T08:30:09.554Z, 49.64
2023-02-06T08:31:09.824Z, 49.51
2023-02-06T08:32:09.567Z, 49.51
2023-02-06T08:33:09.649Z, 49.48
2023-02-06T08:34:09.654Z, 49.40
2023-02-06T08:35:09.665Z, 49.40
2023-02-06T08:36:09.646Z, 49.31
2023-02-06T08:37:09.676Z, 49.27
2023-02-06T08:38:09.659Z, 49.21
2023-02-06T08:39:09.719Z, 49.15
2023-02-06T08:40:09.921Z, 49.14
2023-02-06T08:41:09.746Z, 49.05
2023-02-06T08:42:09.770Z, 48.99
2023-02-06T08:43:09.751Z, 48.95
2023-02-06T08:44:09.791Z, 48.95
2023-02-06T08:45:09.978Z, 48.88
2023-02-06T08:46:09.883Z, 48.83
2023-02-06T08:47:10.667Z, 48.74
2023-02-06T08:48:09.849Z, 48.71
2023-02-06T08:49:09.852Z, 48.68
2023-02-06T08:50:09.984Z, 48.64
2023-02-06T08:51:09.859Z, 48.59
2023-02-06T08:52:09.890Z, 48.56
2023-02-06T08:53:09.858Z, 48.47
2023-02-06T08:54:09.892Z, 48.45
2023-02-06T08:55:09.996Z, 48.33
2023-02-06T08:56:09.907Z, 48.31
2023-02-06T08:57:09.910Z, 48.27
2023-02-06T08:58:09.952Z, 48.23
2023-02-06T08:59:09.973Z, 48.15
2023-02-06T09:00:10.026Z, 48.10
2023-02-06T09:01:09.996Z, 48.14
2023-02-06T09:02:10.020Z, 48.17
2023-02-06T09:03:09.985Z, 48.16
2023-02-06T09:04:10.011Z, 48.16
2023-02-06T09:05:10.037Z, 48.06
2023-02-06T09:06:10.673Z, 47.98
2023-02-06T09:07:10.029Z, 47.94
2023-02-06T09:08:10.066Z, 47.97
2023-02-06T09:09:10.041Z, 47.93
2023-02-06T09:10:22.147Z, 47.86
2023-02-06T09:11:10.127Z, 47.84
2023-02-06T09:12:10.101Z, 47.81
2023-02-06T09:13:10.098Z, 47.74
2023-02-06T09:14:10.171Z, 47.64
2023-02-06T09:15:10.159Z, 47.54
2023-02-06T09:16:10.201Z, 47.48
2023-02-06T09:17:10.148Z, 47.45
2023-02-06T09:18:10.170Z, 47.48
2023-02-06T09:19:10.187Z, 47.49
2023-02-06T09:20:10.169Z, 47.44
2023-02-06T09:21:10.218Z, 47.51
2023-02-06T09:22:10.223Z, 47.46
2023-02-06T09:23:10.297Z, 47.46
2023-02-06T09:24:10.265Z, 47.41
2023-02-06T09:25:10.257Z, 47.32
2023-02-06T09:26:10.262Z, 47.30
2023-02-06T09:27:10.305Z, 47.33
2023-02-06T09:28:10.317Z, 47.27
2023-02-06T09:29:10.278Z, 47.14
2023-02-06T09:30:10.270Z, 47.02
2023-02-06T09:31:10.529Z, 46.96
2023-02-06T09:32:10.341Z, 46.95
2023-02-06T09:33:10.363Z, 46.95
2023-02-06T09:34:10.392Z, 46.96
2023-02-06T09:35:10.473Z, 46.93
2023-02-06T09:36:10.420Z, 46.88
2023-02-06T09:37:10.400Z, 46.85
2023-02-06T09:38:10.405Z, 46.84
2023-02-06T09:39:10.412Z, 46.78
2023-02-06T09:40:10.485Z, 46.66
2023-02-06T09:41:10.482Z, 46.58
2023-02-06T09:42:10.489Z, 46.58
2023-02-06T09:43:10.492Z, 46.55
2023-02-06T09:44:10.519Z, 46.59
2023-02-06T09:45:10.484Z, 46.55
2023-02-06T09:46:10.578Z, 46.56
2023-02-06T09:47:10.487Z, 46.41
2023-02-06T09:48:10.486Z, 46.40
2023-02-06T09:49:10.485Z, 46.37
2023-02-06T09:50:10.490Z, 46.31
2023-02-06T09:51:10.510Z, 46.39
2023-02-06T09:52:10.517Z, 46.33
2023-02-06T09:53:10.533Z, 46.25
2023-02-06T09:54:10.553Z, 46.32
2023-02-06T09:55:10.618Z, 46.29
2023-02-06T09:56:10.589Z, 46.08
2023-02-06T09:57:10.580Z, 46.08
2023-02-06T09:58:10.595Z, 46.02
2023-02-06T09:59:10.610Z, 46.11
2023-02-06T10:00:10.681Z, 46.01
2023-02-06T10:01:10.652Z, 46.00
2023-02-06T10:02:10.709Z, 45.90
2023-02-06T10:03:10.729Z, 45.89
2023-02-06T10:04:10.741Z, 45.76
2023-02-06T10:05:10.700Z, 45.66
2023-02-06T10:06:10.727Z, 45.73
2023-02-06T10:07:10.779Z, 45.74
2023-02-06T10:08:10.804Z, 45.81
2023-02-06T10:09:10.824Z, 45.78
2023-02-06T10:10:10.829Z, 45.67
2023-02-06T10:11:10.913Z, 45.56
2023-02-06T10:12:10.838Z, 45.49
2023-02-06T10:13:10.850Z, 45.50
2023-02-06T10:14:10.874Z, 45.53
2023-02-06T10:15:10.870Z, 45.44
2023-02-06T10:16:11.865Z, 45.41
2023-02-06T10:17:10.915Z, 45.45
2023-02-06T10:18:10.902Z, 45.39
2023-02-06T10:19:10.885Z, 45.33
2023-02-06T10:20:10.961Z, 45.33
2023-02-06T10:21:10.956Z, 45.35
2023-02-06T10:22:10.927Z, 45.29
2023-02-06T10:23:10.968Z, 45.19
2023-02-06T10:24:11.010Z, 45.22
2023-02-06T10:25:10.996Z, 45.18
2023-02-06T10:26:10.999Z, 45.16
2023-02-06T10:27:11.023Z, 45.14
2023-02-06T10:28:11.049Z, 45.00
2023-02-06T10:29:11.004Z, 44.96
2023-02-06T10:30:11.040Z, 45.09
2023-02-06T10:31:11.178Z, 45.08
2023-02-06T10:32:11.051Z, 45.05
2023-02-06T10:33:23.946Z, 45.13
2023-02-06T10:34:11.042Z, 44.95
2023-02-06T10:35:11.067Z, 44.94
2023-02-06T10:36:11.074Z, 44.96
2023-02-06T10:37:11.073Z, 44.96
2023-02-06T10:38:11.098Z, 44.92
2023-02-06T10:39:11.123Z, 44.83
2023-02-06T10:40:11.132Z, 44.78
2023-02-06T10:41:11.145Z, 44.77
2023-02-06T10:42:11.153Z, 44.75
2023-02-06T10:43:11.136Z, 44.76
2023-02-06T10:44:11.203Z, 44.76
2023-02-06T10:45:20.162Z, 44.77
2023-02-06T10:46:11.195Z, 44.66
2023-02-06T10:47:11.226Z, 44.60
2023-02-06T10:48:11.339Z, 44.63
2023-02-06T10:49:11.296Z, 44.60
2023-02-06T10:50:11.279Z, 44.47
2023-02-06T10:51:11.246Z, 44.47
2023-02-06T10:52:11.255Z, 44.50
2023-02-06T10:53:11.267Z, 44.41
2023-02-06T10:54:11.261Z, 44.48
2023-02-06T10:55:11.272Z, 44.34
2023-02-06T10:56:11.338Z, 44.25
2023-02-06T10:57:11.316Z, 44.25
2023-02-06T10:58:11.325Z, 44.27
2023-02-06T10:59:11.339Z, 44.29
2023-02-06T11:00:11.360Z, 44.22
2023-02-06T11:01:25.053Z, 44.62
2023-02-06T11:02:11.440Z, 46.20
2023-02-06T11:03:11.394Z, 46.59
2023-02-06T11:04:11.390Z, 46.75
2023-02-06T11:05:11.404Z, 46.67
2023-02-06T11:06:11.415Z, 46.32
2023-02-06T11:07:11.490Z, 45.41
2023-02-06T11:08:11.494Z, 44.22
2023-02-06T11:09:11.484Z, 42.99
2023-02-06T11:10:11.476Z, 41.85
2023-02-06T11:11:11.461Z, 40.72
2023-02-06T11:12:11.506Z, 39.59
2023-02-06T11:13:11.518Z, 40.07
2023-02-06T11:14:11.487Z, 42.85
2023-02-06T11:15:11.492Z, 45.65
2023-02-06T11:16:11.526Z, 47.73
2023-02-06T11:17:11.515Z, 49.33
2023-02-06T11:18:11.583Z, 49.70
2023-02-06T11:19:11.608Z, 47.38
2023-02-06T11:20:11.615Z, 44.80
2023-02-06T11:21:11.595Z, 42.41
2023-02-06T11:22:11.603Z, 40.13
2023-02-06T11:23:11.602Z, 37.86
2023-02-06T11:24:11.668Z, 35.43
2023-02-06T11:25:11.690Z, 32.79
2023-02-06T11:26:11.653Z, 32.13
2023-02-06T11:27:11.654Z, 37.99
2023-02-06T11:28:11.689Z, 44.08
2023-02-06T11:29:11.670Z, 48.49
2023-02-06T11:30:11.691Z, 51.67
2023-02-06T11:31:11.779Z, 53.56
2023-02-06T11:32:11.710Z, 54.69
2023-02-06T11:33:11.730Z, 53.94
2023-02-06T11:34:11.711Z, 52.89
2023-02-06T11:35:11.776Z, 52.30
2023-02-06T11:36:11.776Z, 51.91
2023-02-06T11:37:11.814Z, 51.59
2023-02-06T11:38:11.836Z, 51.26
2023-02-06T11:39:11.818Z, 51.00
2023-02-06T11:40:11.851Z, 50.72
2023-02-06T11:41:13.023Z, 50.44
2023-02-06T11:42:11.863Z, 50.18
2023-02-06T11:43:11.837Z, 49.96
2023-02-06T11:44:11.851Z, 49.75
2023-02-06T11:45:11.884Z, 49.54
2023-02-06T11:46:11.959Z, 49.32
2023-02-06T11:47:11.872Z, 49.12
2023-02-06T11:48:11.927Z, 48.92
2023-02-06T11:49:11.900Z, 48.71
2023-02-06T11:50:11.899Z, 48.46
2023-02-06T11:51:11.984Z, 48.25
2023-02-06T11:52:11.989Z, 48.08
2023-02-06T11:53:11.963Z, 47.89
2023-02-06T11:54:11.957Z, 47.69
2023-02-06T11:55:11.966Z, 47.49
2023-02-06T11:56:11.977Z, 47.37
2023-02-06T11:57:12.006Z, 47.22
2023-02-06T11:58:12.025Z, 47.03
2023-02-06T11:59:12.010Z, 46.87
2023-02-06T12:00:12.090Z, 46.66
2023-02-06T12:01:12.056Z, 46.52
2023-02-06T12:02:12.110Z, 46.32
2023-02-06T12:03:12.108Z, 46.14
2023-02-06T12:04:12.125Z, 45.99
2023-02-06T12:05:12.141Z, 45.86
2023-02-06T12:06:12.113Z, 45.72
2023-02-06T12:07:12.190Z, 45.63
2023-02-06T12:08:12.233Z, 45.47
2023-02-06T12:09:12.215Z, 45.35
2023-02-06T12:10:12.283Z, 45.20
2023-02-06T12:11:12.517Z, 45.08
2023-02-06T12:12:12.212Z, 44.88
2023-02-06T12:13:12.232Z, 44.76
2023-02-06T12:14:12.257Z, 44.66
2023-02-06T12:15:36.276Z, 44.48
2023-02-06T12:16:12.271Z, 44.36
2023-02-06T12:17:12.259Z, 44.28
2023-02-06T12:18:12.244Z, 44.16
2023-02-06T12:19:12.262Z, 44.05
2023-02-06T12:20:12.264Z, 43.88
2023-02-06T12:21:12.336Z, 43.75
2023-02-06T12:22:12.466Z, 43.63
2023-02-06T12:23:12.356Z, 43.55
2023-02-06T12:24:12.343Z, 43.49
2023-02-06T12:25:12.357Z, 43.34
2023-02-06T12:26:12.410Z, 43.21
2023-02-06T12:27:12.426Z, 43.18
2023-02-06T12:28:12.435Z, 43.03